createdAt,value
2018-11-29T00:02:44.986Z,7.42
2018-11-29T00:07:03.923Z,7.58
2018-11-29T00:11:07.975Z,7.65
2018-11-29T00:15:14.604Z,7.73
2018-11-29T00:19:18.625Z,7.73
2018-11-29T00:23:22.631Z,7.74
2018-11-29T00:27:26.623Z,7.76
2018-11-29T00:31:30.776Z,7.67
2018-11-29T00:35:34.810Z,7.67
2018-11-29T00:39:39.020Z,7.68
2018-11-29T00:43:43.014Z,7.69
2018-11-29T00:47:47.521Z,7.67
2018-11-29T00:51:52.566Z,7.70
2018-11-29T00:55:56.539Z,7.83
2018-11-29T01:00:00.504Z,7.72
2018-11-29T01:04:04.487Z,7.79
2018-11-29T01:08:08.603Z,7.77
2018-11-29T01:12:12.647Z,7.77
2018-11-29T01:16:16.674Z,7.83
2018-11-29T01:20:21.383Z,7.73
2018-11-29T01:24:25.440Z,7.70
2018-11-29T01:28:29.431Z,7.69
2018-11-29T01:32:33.512Z,7.70
2018-11-29T01:36:37.586Z,7.73
2018-11-29T01:40:41.617Z,7.74
2018-11-29T01:44:45.692Z,7.75
2018-11-29T01:48:49.911Z,7.75
2018-11-29T01:52:54.024Z,7.76
2018-11-29T01:56:58.101Z,7.63
2018-11-29T02:01:02.214Z,7.67
2018-11-29T02:05:07.668Z,7.59
2018-11-29T02:09:11.760Z,7.57
2018-11-29T02:13:15.765Z,7.56
2018-11-29T02:17:19.789Z,7.60
2018-11-29T02:21:23.840Z,7.62
2018-11-29T02:25:27.952Z,7.54
2018-11-29T02:29:31.988Z,7.56
2018-11-29T02:33:36.020Z,7.61
2018-11-29T02:37:39.965Z,7.66
2018-11-29T04:54:23.335Z,7.54
2018-11-29T04:58:27.385Z,7.49
2018-11-29T05:02:31.410Z,7.51
2018-11-29T05:06:35.411Z,7.43
2018-11-29T05:10:39.705Z,7.50
2018-11-29T05:14:43.707Z,7.53
2018-11-29T05:18:47.760Z,7.53
2018-11-29T05:22:51.802Z,7.48
2018-11-29T05:26:55.982Z,7.46
2018-11-29T05:30:59.996Z,7.46
2018-11-29T05:35:06.162Z,7.47
2018-11-29T05:39:10.188Z,7.46
2018-11-29T05:43:14.192Z,7.42
2018-11-29T05:47:18.219Z,7.31
2018-11-29T05:51:22.182Z,7.29
2018-11-29T05:55:26.208Z,7.31
2018-11-29T05:59:30.273Z,7.36
2018-11-29T06:03:34.274Z,7.30
2018-11-29T06:07:38.324Z,7.33
2018-11-29T06:11:42.485Z,7.32
2018-11-29T06:15:46.451Z,7.24
2018-11-29T06:19:50.531Z,7.23
2018-11-29T06:23:54.543Z,7.23
2018-11-29T06:27:58.546Z,7.18
2018-11-29T06:32:03.025Z,7.19
2018-11-29T06:36:07.127Z,7.19
2018-11-29T06:40:12.070Z,7.22
2018-11-29T06:44:16.032Z,7.21
2018-11-29T06:48:21.029Z,7.18
2018-11-29T06:52:25.007Z,7.17
2018-11-29T06:56:29.078Z,7.11
2018-11-29T07:00:33.182Z,7.06
2018-11-29T07:04:38.726Z,7.09
2018-11-29T07:08:42.742Z,7.03
2018-11-29T07:12:46.684Z,7.13
2018-11-29T07:16:50.739Z,7.10
2018-11-29T07:21:06.027Z,7.16
2018-11-29T07:25:10.374Z,7.22
2018-11-29T07:29:16.893Z,7.19
2018-11-29T07:33:18.459Z,7.27
2018-11-29T07:37:27.825Z,7.31
2018-11-29T07:41:32.879Z,7.29
2018-11-29T07:45:36.882Z,7.34
2018-11-29T07:49:40.914Z,7.35
2018-11-29T07:53:44.867Z,7.42
2018-11-29T07:57:51.435Z,7.43
2018-11-29T08:01:55.503Z,7.46
2018-11-29T08:05:59.571Z,7.49
2018-11-29T08:10:03.705Z,7.47
2018-11-29T08:14:07.750Z,7.48
2018-11-29T08:18:11.888Z,7.52
2018-11-29T08:22:15.935Z,7.58
2018-11-29T08:26:19.930Z,7.63
2018-11-29T08:30:23.983Z,7.58
2018-11-29T08:34:27.978Z,7.61
2018-11-29T08:38:32.210Z,7.66
2018-11-29T08:42:36.554Z,7.72
2018-11-29T08:46:40.567Z,7.72
2018-11-29T08:50:44.679Z,7.67
2018-11-29T08:54:48.723Z,7.62
2018-11-29T08:58:52.782Z,7.59
2018-11-29T09:02:56.863Z,7.60
2018-11-29T09:07:00.972Z,7.61
2018-11-29T09:11:05.425Z,7.51
2018-11-29T09:15:13.417Z,7.47
2018-11-29T09:19:17.599Z,7.46
2018-11-29T09:23:21.931Z,7.42
2018-11-29T09:27:25.975Z,7.40
2018-11-29T09:31:30.451Z,7.41
2018-11-29T09:35:34.651Z,7.39
2018-11-29T09:39:38.637Z,7.37
2018-11-29T09:43:44.167Z,7.36
2018-11-29T09:47:49.379Z,7.34
2018-11-29T09:51:53.470Z,7.30
2018-11-29T09:55:57.475Z,7.25
2018-11-29T10:00:01.483Z,7.19
2018-11-29T10:04:05.722Z,7.21
2018-11-29T10:08:12.456Z,7.21
2018-11-29T10:12:16.463Z,7.21
2018-11-29T10:16:20.450Z,7.23
2018-11-29T10:20:24.502Z,7.25
2018-11-29T10:24:28.462Z,7.29
2018-11-29T10:28:32.539Z,7.35
2018-11-29T10:32:36.530Z,7.35
2018-11-29T10:36:40.535Z,7.39
2018-11-29T10:40:44.606Z,7.33
2018-11-29T10:44:48.633Z,7.43
2018-11-29T10:48:52.691Z,7.46
2018-11-29T10:52:56.919Z,7.48
2018-11-29T10:57:00.967Z,7.47
2018-11-29T11:01:10.735Z,7.50
2018-11-29T11:05:16.379Z,7.52
2018-11-29T11:09:20.411Z,7.50
2018-11-29T11:13:24.477Z,7.41
2018-11-29T11:17:28.452Z,7.26
2018-11-29T11:21:32.518Z,7.32
2018-11-29T11:25:36.701Z,7.34
2018-11-29T11:29:40.643Z,7.26
2018-11-29T11:33:44.607Z,7.33
2018-11-29T11:37:48.556Z,7.30
2018-11-29T11:41:52.635Z,7.33
2018-11-29T11:45:56.701Z,7.37
2018-11-29T11:50:00.748Z,7.42
2018-11-29T11:54:04.990Z,7.54
2018-11-29T11:58:09.249Z,7.61
2018-11-29T12:02:13.395Z,7.71
2018-11-29T12:06:17.502Z,7.81
2018-11-29T12:10:21.507Z,7.77
2018-11-29T12:14:25.487Z,7.82
2018-11-29T12:18:41.510Z,7.82
2018-11-29T12:22:48.013Z,7.80
2018-11-29T12:26:52.007Z,7.85
2018-11-29T12:30:56.156Z,7.75
2018-11-29T12:35:00.194Z,7.82
2018-11-29T12:39:08.550Z,7.85
2018-11-29T12:43:12.620Z,7.86
2018-11-29T12:47:16.601Z,7.89
2018-11-29T12:51:20.582Z,7.93
2018-11-29T12:55:25.721Z,7.87
2018-11-29T12:59:29.743Z,7.98
2018-11-29T13:03:33.707Z,8.16
2018-11-29T13:07:37.786Z,8.26
2018-11-29T13:11:41.855Z,8.28
2018-11-29T13:15:45.986Z,8.34
2018-11-29T13:19:55.514Z,8.50
2018-11-29T13:24:00.520Z,8.41
2018-11-29T13:28:04.114Z,8.38
2018-11-29T13:32:08.163Z,8.19
2018-11-29T13:36:12.489Z,8.18
2018-11-29T13:44:20.606Z,8.15
2018-11-29T13:48:24.608Z,8.16
2018-11-29T13:52:28.716Z,8.23
2018-11-29T13:56:32.732Z,8.36
2018-11-29T14:00:36.719Z,8.50
2018-11-29T14:04:40.751Z,8.56
2018-11-29T14:08:44.734Z,8.55
2018-11-29T14:12:49.743Z,8.52
2018-11-29T14:16:53.798Z,8.53
2018-11-29T14:20:57.923Z,8.38
2018-11-29T14:25:01.962Z,8.34
2018-11-29T14:29:06.123Z,8.37
2018-11-29T14:33:10.381Z,8.38
2018-11-29T14:37:15.522Z,8.42
2018-11-29T14:41:19.654Z,8.46
2018-11-29T14:45:24.891Z,8.55
2018-11-29T14:49:28.911Z,8.48
2018-11-29T14:53:33.127Z,8.52
2018-11-29T14:57:37.200Z,8.42
2018-11-29T15:01:41.284Z,8.38
2018-11-29T15:05:46.502Z,8.29
2018-11-29T15:09:56.205Z,8.34
2018-11-29T15:14:00.699Z,8.23
2018-11-29T15:18:04.736Z,8.23
2018-11-29T15:22:08.787Z,8.19
2018-11-29T15:26:12.885Z,8.08
2018-11-29T15:30:17.995Z,8.02
2018-11-29T15:34:22.064Z,8.04
2018-11-29T15:38:26.055Z,8.12
2018-11-29T15:42:30.046Z,8.04
2018-11-29T15:46:34.014Z,8.03
2018-11-29T15:50:38.003Z,8.14
2018-11-29T15:54:42.122Z,8.23
2018-11-29T15:58:46.055Z,8.27
2018-11-29T16:02:50.537Z,8.31
2018-11-29T16:06:54.595Z,8.27
2018-11-29T16:10:58.532Z,8.25
2018-11-29T16:15:02.503Z,8.29
2018-11-29T16:19:06.619Z,8.34
2018-11-29T16:23:10.763Z,8.24
2018-11-29T16:27:14.880Z,8.30
2018-11-29T16:31:18.808Z,8.34
2018-11-29T16:35:22.894Z,8.39
2018-11-29T16:39:26.884Z,8.36
2018-11-29T16:43:30.835Z,8.45
2018-11-29T16:47:34.830Z,8.49
2018-11-29T16:51:38.777Z,8.53
2018-11-29T16:55:42.779Z,8.61
2018-11-29T16:59:46.811Z,8.57
2018-11-29T17:03:50.820Z,8.50
2018-11-29T17:07:54.867Z,8.41
2018-11-29T17:12:00.291Z,8.48
2018-11-29T17:16:03.218Z,8.37
2018-11-29T17:20:09.764Z,8.47
2018-11-29T17:24:20.830Z,8.36
2018-11-29T17:28:28.688Z,8.43
2018-11-29T17:32:32.645Z,8.48
2018-11-29T17:36:36.587Z,8.46
2018-11-29T17:40:40.819Z,8.51
2018-11-29T17:44:45.006Z,8.65
2018-11-29T17:48:49.192Z,8.72
2018-11-29T17:52:53.302Z,8.72
2018-11-29T17:56:57.520Z,8.84
2018-11-29T18:01:02.528Z,8.91
2018-11-29T18:05:07.261Z,8.90
2018-11-29T18:09:13.501Z,8.86
2018-11-29T18:13:19.260Z,8.91
2018-11-29T18:17:23.845Z,8.93
2018-11-29T18:21:27.954Z,8.86
2018-11-29T18:25:32.127Z,8.91
2018-11-29T18:29:36.221Z,8.81
2018-11-29T18:33:40.191Z,8.70
2018-11-29T18:37:44.463Z,8.51
2018-11-29T18:41:48.780Z,8.53
2018-11-29T18:45:53.256Z,8.50
2018-11-29T18:49:57.248Z,8.54
2018-11-29T18:54:01.212Z,8.60
2018-11-29T18:58:06.396Z,8.59
2018-11-29T19:02:11.515Z,8.66
2018-11-29T19:06:15.589Z,8.62
2018-11-29T19:10:19.956Z,8.71
2018-11-29T19:14:23.954Z,8.68
2018-11-29T19:18:28.039Z,8.73
2018-11-29T19:22:32.151Z,8.64
2018-11-29T19:26:36.243Z,8.62
2018-11-29T19:30:40.219Z,8.52
2018-11-29T19:34:44.188Z,8.52
2018-11-29T19:38:48.107Z,8.49
2018-11-29T19:42:52.198Z,8.62
2018-11-29T19:46:56.362Z,8.58
2018-11-29T19:51:00.534Z,8.51
2018-11-29T19:55:04.615Z,8.39
2018-11-29T19:59:08.699Z,8.32
2018-11-29T20:03:12.595Z,8.30
2018-11-29T20:07:16.584Z,8.15
2018-11-29T20:11:21.556Z,8.15
2018-11-29T20:15:25.521Z,8.07
2018-11-29T20:19:29.634Z,8.06
2018-11-29T20:23:33.615Z,8.04
2018-11-29T20:27:37.698Z,8.07
2018-11-29T20:31:41.692Z,7.94
2018-11-29T20:35:45.788Z,7.99
2018-11-29T20:39:49.767Z,8.11
2018-11-29T20:43:53.773Z,8.66
2018-11-29T20:47:58.919Z,9.31
2018-11-29T20:52:02.894Z,9.61
2018-11-29T20:56:11.163Z,10.05
2018-11-29T21:00:15.675Z,10.23
2018-11-29T21:04:19.741Z,10.40
2018-11-29T21:08:23.758Z,10.36
2018-11-29T21:12:27.764Z,10.43
2018-11-29T21:16:31.794Z,10.37
2018-11-29T21:20:35.941Z,10.33
2018-11-29T21:24:39.930Z,10.35
2018-11-29T21:28:43.968Z,10.44
2018-11-29T21:32:48.229Z,10.49
2018-11-29T21:36:52.251Z,10.63
2018-11-29T21:41:02.052Z,10.53
2018-11-29T21:45:06.192Z,10.54
2018-11-29T21:49:10.135Z,10.56
2018-11-29T21:53:14.215Z,10.49
2018-11-29T21:57:18.171Z,10.55
2018-11-29T22:01:22.131Z,10.60
2018-11-29T22:05:26.111Z,10.50
2018-11-29T22:09:30.140Z,10.48
2018-11-29T22:13:34.377Z,10.40
2018-11-29T22:17:54.056Z,10.35
2018-11-29T22:21:59.233Z,10.49
2018-11-29T22:26:05.065Z,10.52
2018-11-29T22:30:09.056Z,10.66
2018-11-29T22:34:13.590Z,10.67
2018-11-29T22:38:17.616Z,10.76
2018-11-29T22:42:21.566Z,10.88
2018-11-29T22:46:25.677Z,10.73
2018-11-29T22:50:29.726Z,10.68
2018-11-29T22:54:33.783Z,10.82
2018-11-29T22:58:38.172Z,10.68
2018-11-29T23:02:42.136Z,10.70
2018-11-29T23:06:46.152Z,10.72
2018-11-29T23:10:53.307Z,10.68
2018-11-29T23:14:57.285Z,10.86
2018-11-29T23:19:01.821Z,10.79
2018-11-29T23:23:05.880Z,10.72
2018-11-29T23:27:10.251Z,10.74
2018-11-29T23:31:14.478Z,10.72
2018-11-29T23:35:18.588Z,10.73
2018-11-29T23:39:22.627Z,10.80
2018-11-29T23:43:26.851Z,10.80
2018-11-29T23:47:31.063Z,10.78
2018-11-29T23:51:35.075Z,10.83
2018-11-29T23:55:39.991Z,10.83
2018-11-29T23:59:44.026Z,10.82
